sensor_id;sensor_type;location;lat;lon;timestamp;P1;durP1;ratioP1;P2;durP2;ratioP2
76439;SDS011;65274;44.982;20.060;2024-02-16T00:00:33;59.10;;;31.52;;
76439;SDS011;65274;44.982;20.060;2024-02-16T00:03:00;59.28;;;32.03;;
76439;SDS011;65274;44.982;20.060;2024-02-16T00:05:29;63.75;;;33.70;;
76439;SDS011;65274;44.982;20.060;2024-02-16T00:07:59;67.03;;;36.83;;
76439;SDS011;65274;44.982;20.060;2024-02-16T00:10:45;70.75;;;35.35;;
76439;SDS011;65274;44.982;20.060;2024-02-16T00:13:12;65.38;;;35.60;;
76439;SDS011;65274;44.982;20.060;2024-02-16T00:15:38;62.90;;;34.85;;
76439;SDS011;65274;44.982;20.060;2024-02-16T00:18:04;69.63;;;35.42;;
76439;SDS011;65274;44.982;20.060;2024-02-16T00:20:31;66.55;;;35.42;;
76439;SDS011;65274;44.982;20.060;2024-02-16T00:23:16;66.20;;;35.35;;
76439;SDS011;65274;44.982;20.060;2024-02-16T00:26:11;71.85;;;36.55;;
76439;SDS011;65274;44.982;20.060;2024-02-16T00:28:55;71.63;;;33.63;;
76439;SDS011;65274;44.982;20.060;2024-02-16T00:39:54;66.88;;;35.22;;
76439;SDS011;65274;44.982;20.060;2024-02-16T00:53:46;80.15;;;39.25;;
76439;SDS011;65274;44.982;20.060;2024-02-16T00:56:34;70.50;;;37.78;;
76439;SDS011;65274;44.982;20.060;2024-02-16T00:59:40;73.50;;;37.38;;
76439;SDS011;65274;44.982;20.060;2024-02-16T01:02:27;75.55;;;37.08;;
76439;SDS011;65274;44.982;20.060;2024-02-16T01:07:58;69.35;;;35.88;;
76439;SDS011;65274;44.982;20.060;2024-02-16T01:10:43;90.15;;;44.53;;
76439;SDS011;65274;44.982;20.060;2024-02-16T01:13:29;92.13;;;44.45;;
76439;SDS011;65274;44.982;20.060;2024-02-16T01:15:56;108.40;;;48.53;;
76439;SDS011;65274;44.982;20.060;2024-02-16T01:18:55;106.30;;;48.35;;
76439;SDS011;65274;44.982;20.060;2024-02-16T01:21:43;93.80;;;46.07;;
76439;SDS011;65274;44.982;20.060;2024-02-16T01:24:19;96.55;;;45.75;;
76439;SDS011;65274;44.982;20.060;2024-02-16T01:27:24;83.32;;;42.00;;
76439;SDS011;65274;44.982;20.060;2024-02-16T01:29:53;94.60;;;44.00;;
76439;SDS011;65274;44.982;20.060;2024-02-16T01:33:05;79.82;;;41.70;;
76439;SDS011;65274;44.982;20.060;2024-02-16T01:41:29;141.30;;;64.00;;
76439;SDS011;65274;44.982;20.060;2024-02-16T01:44:00;112.68;;;50.72;;
76439;SDS011;65274;44.982;20.060;2024-02-16T01:46:30;85.35;;;43.25;;
76439;SDS011;65274;44.982;20.060;2024-02-16T01:49:13;87.25;;;44.60;;
76439;SDS011;65274;44.982;20.060;2024-02-16T01:54:58;90.18;;;45.75;;
76439;SDS011;65274;44.982;20.060;2024-02-16T02:00:35;87.47;;;40.47;;
76439;SDS011;65274;44.982;20.060;2024-02-16T02:08:49;99.72;;;47.78;;
76439;SDS011;65274;44.982;20.060;2024-02-16T02:14:39;122.88;;;54.17;;
76439;SDS011;65274;44.982;20.060;2024-02-16T02:20:21;96.03;;;45.90;;
76439;SDS011;65274;44.982;20.060;2024-02-16T02:23:28;92.22;;;45.58;;
76439;SDS011;65274;44.982;20.060;2024-02-16T02:26:33;108.78;;;46.65;;
76439;SDS011;65274;44.982;20.060;2024-02-16T02:44:23;88.60;;;42.03;;
76439;SDS011;65274;44.982;20.060;2024-02-16T08:36:21;48.50;;;34.35;;
76439;SDS011;65274;44.982;20.060;2024-02-16T08:38:54;50.88;;;36.10;;
76439;SDS011;65274;44.982;20.060;2024-02-16T08:41:21;46.88;;;34.90;;
76439;SDS011;65274;44.982;20.060;2024-02-16T08:55:04;74.57;;;51.00;;
76439;SDS011;65274;44.982;20.060;2024-02-16T08:57:33;48.33;;;32.20;;
76439;SDS011;65274;44.982;20.060;2024-02-16T08:59:59;52.47;;;35.90;;
76439;SDS011;65274;44.982;20.060;2024-02-16T09:02:25;40.13;;;31.27;;
76439;SDS011;65274;44.982;20.060;2024-02-16T09:04:51;55.50;;;38.28;;
76439;SDS011;65274;44.982;20.060;2024-02-16T09:07:17;50.85;;;35.67;;
76439;SDS011;65274;44.982;20.060;2024-02-16T09:09:43;45.72;;;34.65;;
76439;SDS011;65274;44.982;20.060;2024-02-16T09:12:14;48.28;;;33.67;;
76439;SDS011;65274;44.982;20.060;2024-02-16T09:14:43;47.42;;;35.65;;
76439;SDS011;65274;44.982;20.060;2024-02-16T09:17:11;44.40;;;33.13;;
76439;SDS011;65274;44.982;20.060;2024-02-16T09:19:38;41.67;;;31.30;;
76439;SDS011;65274;44.982;20.060;2024-02-16T09:22:04;46.08;;;30.77;;
76439;SDS011;65274;44.982;20.060;2024-02-16T09:24:31;41.30;;;32.17;;
76439;SDS011;65274;44.982;20.060;2024-02-16T09:26:58;42.95;;;32.03;;
76439;SDS011;65274;44.982;20.060;2024-02-16T09:29:29;33.28;;;25.98;;
76439;SDS011;65274;44.982;20.060;2024-02-16T09:31:55;28.48;;;19.23;;
76439;SDS011;65274;44.982;20.060;2024-02-16T09:34:24;21.67;;;15.30;;
76439;SDS011;65274;44.982;20.060;2024-02-16T09:36:50;23.65;;;18.85;;
76439;SDS011;65274;44.982;20.060;2024-02-16T09:39:16;22.52;;;15.85;;
76439;SDS011;65274;44.982;20.060;2024-02-16T09:41:42;20.30;;;16.45;;
76439;SDS011;65274;44.982;20.060;2024-02-16T09:44:09;17.00;;;12.32;;
76439;SDS011;65274;44.982;20.060;2024-02-16T09:46:41;17.97;;;13.53;;
76439;SDS011;65274;44.982;20.060;2024-02-16T09:49:07;14.80;;;12.82;;
76439;SDS011;65274;44.982;20.060;2024-02-16T09:51:36;19.70;;;14.00;;
76439;SDS011;65274;44.982;20.060;2024-02-16T09:54:03;11.23;;;10.02;;
76439;SDS011;65274;44.982;20.060;2024-02-16T09:56:29;15.73;;;11.63;;
76439;SDS011;65274;44.982;20.060;2024-02-16T09:58:55;15.47;;;13.33;;
76439;SDS011;65274;44.982;20.060;2024-02-16T10:01:22;14.93;;;12.07;;
76439;SDS011;65274;44.982;20.060;2024-02-16T10:06:18;17.05;;;12.77;;
76439;SDS011;65274;44.982;20.060;2024-02-16T10:08:47;13.45;;;11.13;;
76439;SDS011;65274;44.982;20.060;2024-02-16T10:11:14;16.50;;;13.70;;
76439;SDS011;65274;44.982;20.060;2024-02-16T10:13:40;13.63;;;11.80;;
76439;SDS011;65274;44.982;20.060;2024-02-16T10:16:07;15.27;;;12.70;;
76439;SDS011;65274;44.982;20.060;2024-02-16T10:18:37;14.18;;;12.40;;
76439;SDS011;65274;44.982;20.060;2024-02-16T10:21:03;16.70;;;12.63;;
76439;SDS011;65274;44.982;20.060;2024-02-16T10:23:30;14.82;;;12.63;;
76439;SDS011;65274;44.982;20.060;2024-02-16T10:25:57;13.13;;;9.98;;
76439;SDS011;65274;44.982;20.060;2024-02-16T10:28:24;12.40;;;10.60;;
76439;SDS011;65274;44.982;20.060;2024-02-16T10:30:57;15.25;;;13.60;;
76439;SDS011;65274;44.982;20.060;2024-02-16T10:33:24;14.75;;;12.10;;
76439;SDS011;65274;44.982;20.060;2024-02-16T10:35:53;14.88;;;11.88;;
76439;SDS011;65274;44.982;20.060;2024-02-16T10:38:20;13.85;;;11.23;;
76439;SDS011;65274;44.982;20.060;2024-02-16T10:40:47;14.13;;;10.98;;
76439;SDS011;65274;44.982;20.060;2024-02-16T10:43:14;13.50;;;11.60;;
76439;SDS011;65274;44.982;20.060;2024-02-16T10:45:41;11.80;;;10.60;;
76439;SDS011;65274;44.982;20.060;2024-02-16T10:48:08;12.75;;;9.77;;
76439;SDS011;65274;44.982;20.060;2024-02-16T10:50:35;11.70;;;10.02;;
76439;SDS011;65274;44.982;20.060;2024-02-16T10:53:16;10.30;;;9.20;;
76439;SDS011;65274;44.982;20.060;2024-02-16T10:55:44;10.10;;;9.02;;
76439;SDS011;65274;44.982;20.060;2024-02-16T10:58:13;19.08;;;10.20;;
76439;SDS011;65274;44.982;20.060;2024-02-16T11:00:49;18.25;;;10.77;;
76439;SDS011;65274;44.982;20.060;2024-02-16T11:03:16;10.88;;;8.20;;
76439;SDS011;65274;44.982;20.060;2024-02-16T11:05:43;9.73;;;8.73;;
76439;SDS011;65274;44.982;20.060;2024-02-16T11:08:13;9.88;;;8.30;;
76439;SDS011;65274;44.982;20.060;2024-02-16T11:10:40;8.20;;;7.07;;
76439;SDS011;65274;44.982;20.060;2024-02-16T11:13:06;9.70;;;8.27;;
76439;SDS011;65274;44.982;20.060;2024-02-16T11:15:35;9.75;;;7.70;;
76439;SDS011;65274;44.982;20.060;2024-02-16T11:18:03;14.07;;;10.02;;
76439;SDS011;65274;44.982;20.060;2024-02-16T11:20:36;12.40;;;9.90;;
76439;SDS011;65274;44.982;20.060;2024-02-16T11:23:09;9.43;;;8.52;;
76439;SDS011;65274;44.982;20.060;2024-02-16T11:25:36;8.85;;;7.95;;
76439;SDS011;65274;44.982;20.060;2024-02-16T11:28:03;10.25;;;8.93;;
76439;SDS011;65274;44.982;20.060;2024-02-16T11:30:32;10.10;;;8.45;;
76439;SDS011;65274;44.982;20.060;2024-02-16T11:32:59;12.20;;;9.20;;
76439;SDS011;65274;44.982;20.060;2024-02-16T11:35:25;10.20;;;8.98;;
76439;SDS011;65274;44.982;20.060;2024-02-16T11:37:51;11.13;;;9.68;;
76439;SDS011;65274;44.982;20.060;2024-02-16T11:40:17;14.25;;;10.20;;
76439;SDS011;65274;44.982;20.060;2024-02-16T11:42:44;10.68;;;9.20;;
76439;SDS011;65274;44.982;20.060;2024-02-16T11:45:12;13.95;;;10.93;;
76439;SDS011;65274;44.982;20.060;2024-02-16T11:52:30;9.60;;;8.48;;
76439;SDS011;65274;44.982;20.060;2024-02-16T11:54:56;10.02;;;8.13;;
76439;SDS011;65274;44.982;20.060;2024-02-16T11:57:25;9.52;;;8.52;;
76439;SDS011;65274;44.982;20.060;2024-02-16T12:07:12;27.40;;;8.80;;
76439;SDS011;65274;44.982;20.060;2024-02-16T12:09:39;11.18;;;9.98;;
76439;SDS011;65274;44.982;20.060;2024-02-16T12:16:58;9.13;;;8.25;;
76439;SDS011;65274;44.982;20.060;2024-02-16T12:21:54;12.55;;;9.90;;
76439;SDS011;65274;44.982;20.060;2024-02-16T12:24:22;11.23;;;9.80;;
76439;SDS011;65274;44.982;20.060;2024-02-16T12:29:14;9.07;;;8.18;;
76439;SDS011;65274;44.982;20.060;2024-02-16T12:31:41;10.25;;;7.90;;
76439;SDS011;65274;44.982;20.060;2024-02-16T12:34:08;14.80;;;8.73;;
76439;SDS011;65274;44.982;20.060;2024-02-16T12:36:35;15.25;;;8.00;;
76439;SDS011;65274;44.982;20.060;2024-02-16T12:39:01;16.20;;;8.27;;
76439;SDS011;65274;44.982;20.060;2024-02-16T12:41:29;7.55;;;6.78;;
76439;SDS011;65274;44.982;20.060;2024-02-16T12:43:55;8.18;;;6.70;;
76439;SDS011;65274;44.982;20.060;2024-02-16T12:46:22;8.45;;;7.28;;
76439;SDS011;65274;44.982;20.060;2024-02-16T12:48:48;7.88;;;6.50;;
76439;SDS011;65274;44.982;20.060;2024-02-16T12:51:14;7.40;;;6.25;;
76439;SDS011;65274;44.982;20.060;2024-02-16T12:53:40;6.85;;;6.07;;
76439;SDS011;65274;44.982;20.060;2024-02-16T12:56:09;6.43;;;4.82;;
76439;SDS011;65274;44.982;20.060;2024-02-16T12:58:36;6.30;;;5.70;;
76439;SDS011;65274;44.982;20.060;2024-02-16T13:03:31;7.35;;;5.25;;
76439;SDS011;65274;44.982;20.060;2024-02-16T13:05:57;5.93;;;4.60;;
76439;SDS011;65274;44.982;20.060;2024-02-16T13:08:23;5.32;;;4.43;;
76439;SDS011;65274;44.982;20.060;2024-02-16T13:10:49;5.57;;;4.35;;
76439;SDS011;65274;44.982;20.060;2024-02-16T13:13:15;5.25;;;4.75;;
76439;SDS011;65274;44.982;20.060;2024-02-16T13:15:41;6.03;;;5.28;;
76439;SDS011;65274;44.982;20.060;2024-02-16T13:18:07;6.75;;;5.28;;
76439;SDS011;65274;44.982;20.060;2024-02-16T13:20:33;6.68;;;5.38;;
76439;SDS011;65274;44.982;20.060;2024-02-16T13:23:00;7.93;;;5.50;;
76439;SDS011;65274;44.982;20.060;2024-02-16T13:25:26;6.63;;;6.03;;
76439;SDS011;65274;44.982;20.060;2024-02-16T13:27:53;8.45;;;6.43;;
76439;SDS011;65274;44.982;20.060;2024-02-16T13:30:19;6.88;;;6.18;;
76439;SDS011;65274;44.982;20.060;2024-02-16T13:32:45;7.90;;;6.55;;
76439;SDS011;65274;44.982;20.060;2024-02-16T13:35:11;11.60;;;8.70;;
76439;SDS011;65274;44.982;20.060;2024-02-16T13:37:38;15.68;;;7.53;;
76439;SDS011;65274;44.982;20.060;2024-02-16T13:40:06;14.43;;;9.88;;
76439;SDS011;65274;44.982;20.060;2024-02-16T13:42:35;7.75;;;6.88;;
76439;SDS011;65274;44.982;20.060;2024-02-16T13:45:02;13.20;;;8.00;;
76439;SDS011;65274;44.982;20.060;2024-02-16T13:47:28;16.13;;;9.63;;
76439;SDS011;65274;44.982;20.060;2024-02-16T13:49:54;15.77;;;10.07;;
76439;SDS011;65274;44.982;20.060;2024-02-16T13:52:22;14.70;;;10.20;;
76439;SDS011;65274;44.982;20.060;2024-02-16T13:54:48;10.68;;;9.25;;
76439;SDS011;65274;44.982;20.060;2024-02-16T13:57:14;15.20;;;10.88;;
76439;SDS011;65274;44.982;20.060;2024-02-16T13:59:41;12.10;;;8.57;;
76439;SDS011;65274;44.982;20.060;2024-02-16T14:04:34;9.63;;;7.50;;
76439;SDS011;65274;44.982;20.060;2024-02-16T14:07:00;12.20;;;9.43;;
76439;SDS011;65274;44.982;20.060;2024-02-16T14:09:26;12.15;;;9.77;;
76439;SDS011;65274;44.982;20.060;2024-02-16T14:11:52;12.27;;;10.27;;
76439;SDS011;65274;44.982;20.060;2024-02-16T14:14:20;14.50;;;9.35;;
76439;SDS011;65274;44.982;20.060;2024-02-16T14:16:47;11.30;;;9.07;;
76439;SDS011;65274;44.982;20.060;2024-02-16T14:19:13;14.88;;;10.73;;
76439;SDS011;65274;44.982;20.060;2024-02-16T14:21:39;14.10;;;10.90;;
76439;SDS011;65274;44.982;20.060;2024-02-16T14:24:05;18.17;;;12.52;;
76439;SDS011;65274;44.982;20.060;2024-02-16T14:28:58;15.52;;;11.10;;
76439;SDS011;65274;44.982;20.060;2024-02-16T14:31:25;18.58;;;12.52;;
76439;SDS011;65274;44.982;20.060;2024-02-16T14:33:51;20.95;;;13.20;;
76439;SDS011;65274;44.982;20.060;2024-02-16T14:36:17;27.08;;;13.98;;
76439;SDS011;65274;44.982;20.060;2024-02-16T14:38:43;22.17;;;13.25;;
76439;SDS011;65274;44.982;20.060;2024-02-16T14:41:09;17.13;;;12.20;;
76439;SDS011;65274;44.982;20.060;2024-02-16T18:03:18;209.68;;;68.45;;
76439;SDS011;65274;44.982;20.060;2024-02-16T18:05:44;155.80;;;58.72;;
76439;SDS011;65274;44.982;20.060;2024-02-16T18:08:15;127.05;;;50.65;;
76439;SDS011;65274;44.982;20.060;2024-02-16T18:10:41;89.63;;;41.88;;
76439;SDS011;65274;44.982;20.060;2024-02-16T18:13:08;77.72;;;42.35;;
76439;SDS011;65274;44.982;20.060;2024-02-16T18:15:34;76.68;;;37.17;;
76439;SDS011;65274;44.982;20.060;2024-02-16T18:18:00;61.28;;;30.38;;
76439;SDS011;65274;44.982;20.060;2024-02-16T18:20:27;55.30;;;29.70;;
76439;SDS011;65274;44.982;20.060;2024-02-16T18:22:54;43.38;;;24.45;;
76439;SDS011;65274;44.982;20.060;2024-02-16T18:25:21;43.80;;;25.25;;
76439;SDS011;65274;44.982;20.060;2024-02-16T18:27:51;46.80;;;21.73;;
76439;SDS011;65274;44.982;20.060;2024-02-16T18:30:17;39.05;;;21.55;;
76439;SDS011;65274;44.982;20.060;2024-02-16T18:32:43;47.08;;;23.33;;
76439;SDS011;65274;44.982;20.060;2024-02-16T18:35:09;45.20;;;24.17;;
76439;SDS011;65274;44.982;20.060;2024-02-16T18:37:37;43.58;;;23.58;;
76439;SDS011;65274;44.982;20.060;2024-02-16T18:40:03;39.65;;;19.25;;
76439;SDS011;65274;44.982;20.060;2024-02-16T18:42:30;31.95;;;18.30;;
76439;SDS011;65274;44.982;20.060;2024-02-16T18:44:57;30.55;;;17.95;;
76439;SDS011;65274;44.982;20.060;2024-02-16T18:47:23;32.15;;;18.73;;
76439;SDS011;65274;44.982;20.060;2024-02-16T18:49:49;30.10;;;17.88;;
76439;SDS011;65274;44.982;20.060;2024-02-16T18:52:17;28.52;;;16.10;;
76439;SDS011;65274;44.982;20.060;2024-02-16T18:54:44;36.03;;;16.40;;
76439;SDS011;65274;44.982;20.060;2024-02-16T18:57:12;32.35;;;18.10;;
76439;SDS011;65274;44.982;20.060;2024-02-16T18:59:39;30.63;;;16.63;;
76439;SDS011;65274;44.982;20.060;2024-02-16T19:02:08;23.73;;;15.55;;
76439;SDS011;65274;44.982;20.060;2024-02-16T19:04:36;33.85;;;19.08;;
76439;SDS011;65274;44.982;20.060;2024-02-16T19:07:02;34.45;;;18.17;;
76439;SDS011;65274;44.982;20.060;2024-02-16T19:09:29;34.03;;;18.45;;
76439;SDS011;65274;44.982;20.060;2024-02-16T19:11:55;34.85;;;18.50;;
76439;SDS011;65274;44.982;20.060;2024-02-16T19:14:23;30.33;;;18.80;;
76439;SDS011;65274;44.982;20.060;2024-02-16T19:16:49;39.75;;;18.77;;
76439;SDS011;65274;44.982;20.060;2024-02-16T19:19:16;29.90;;;16.88;;
76439;SDS011;65274;44.982;20.060;2024-02-16T19:21:42;36.83;;;18.50;;
76439;SDS011;65274;44.982;20.060;2024-02-16T19:24:09;41.92;;;24.70;;
76439;SDS011;65274;44.982;20.060;2024-02-16T19:26:35;42.13;;;22.27;;
76439;SDS011;65274;44.982;20.060;2024-02-16T19:29:03;37.45;;;22.95;;
76439;SDS011;65274;44.982;20.060;2024-02-16T19:31:29;41.35;;;20.95;;
76439;SDS011;65274;44.982;20.060;2024-02-16T19:33:57;41.03;;;24.17;;
76439;SDS011;65274;44.982;20.060;2024-02-16T19:36:24;31.20;;;17.17;;
76439;SDS011;65274;44.982;20.060;2024-02-16T19:38:50;36.75;;;21.08;;
76439;SDS011;65274;44.982;20.060;2024-02-16T19:41:16;38.78;;;22.90;;
76439;SDS011;65274;44.982;20.060;2024-02-16T19:43:43;53.70;;;22.77;;
76439;SDS011;65274;44.982;20.060;2024-02-16T20:13:39;33.90;;;19.27;;
76439;SDS011;65274;44.982;20.060;2024-02-16T20:16:31;41.97;;;21.08;;
76439;SDS011;65274;44.982;20.060;2024-02-16T20:30:03;36.80;;;20.33;;
76439;SDS011;65274;44.982;20.060;2024-02-16T20:32:47;40.03;;;22.30;;
76439;SDS011;65274;44.982;20.060;2024-02-16T20:38:39;39.38;;;19.50;;
